createdAt,value
2023-09-10T00:03:27.271Z,101015.56
2023-09-10T00:08:30.582Z,101015.59
2023-09-10T00:13:32.371Z,101021.06
2023-09-10T00:18:34.084Z,101019.56
2023-09-10T00:23:37.104Z,101019.22
2023-09-10T00:28:39.050Z,101013.88
2023-09-10T00:33:40.685Z,101015.03
2023-09-10T00:38:43.743Z,101011.19
2023-09-10T00:43:45.581Z,101007.22
2023-09-10T00:48:47.784Z,101011.03
2023-09-10T00:53:50.950Z,101006.47
2023-09-10T00:58:53.544Z,101010.47
2023-09-10T01:03:55.988Z,101015.63
2023-09-10T01:08:58.976Z,101011.09
2023-09-10T01:14:10.087Z,101015.41
2023-09-10T01:19:45.095Z,101014.41
2023-09-10T01:24:51.211Z,101012.72
2023-09-10T01:29:52.873Z,101004.03
2023-09-10T01:35:00.539Z,101013.38
2023-09-10T01:40:09.021Z,101013.00
2023-09-10T01:45:11.626Z,101008.81
2023-09-10T01:50:13.984Z,101011.78
2023-09-10T01:55:17.067Z,100999.09
2023-09-10T02:00:18.808Z,100997.47
2023-09-10T02:05:20.511Z,101003.78
2023-09-10T02:10:23.893Z,101002.75
2023-09-10T02:15:25.841Z,101004.38
2023-09-10T02:20:27.549Z,100994.09
2023-09-10T02:25:32.621Z,101004.59
2023-09-10T02:30:34.407Z,101023.78
2023-09-10T02:35:36.076Z,101020.63
2023-09-10T02:40:39.123Z,101020.25
2023-09-10T02:45:41.147Z,101019.22
2023-09-10T02:50:43.081Z,101028.53
2023-09-10T02:55:46.210Z,101028.94
2023-09-10T03:00:48.178Z,101027.44
2023-09-10T03:05:50.264Z,101032.91
2023-09-10T03:10:53.424Z,101007.69
2023-09-10T03:15:55.252Z,101031.97
2023-09-10T03:20:57.086Z,101041.91
2023-09-10T03:26:00.768Z,101035.38
2023-09-10T03:31:03.377Z,101043.34
2023-09-10T03:36:05.942Z,101041.47
2023-09-10T03:41:09.272Z,101036.59
2023-09-10T03:46:12.220Z,101037.22
2023-09-10T03:51:14.211Z,101039.34
2023-09-10T03:56:17.360Z,101045.94
2023-09-10T04:01:20.147Z,101034.72
2023-09-10T04:06:22.078Z,101050.91
2023-09-10T04:11:25.982Z,101045.50
2023-09-10T04:16:27.839Z,101045.50
2023-09-10T04:21:29.649Z,101042.97
2023-09-10T04:26:32.694Z,101047.63
2023-09-10T04:31:37.640Z,101039.94
2023-09-10T04:36:39.472Z,101044.41
2023-09-10T04:41:42.715Z,101046.22
2023-09-10T04:46:44.729Z,101052.72
2023-09-10T04:51:46.522Z,101043.19
2023-09-10T04:56:49.795Z,101047.00
2023-09-10T05:01:51.749Z,101048.00
2023-09-10T05:06:53.672Z,101058.31
2023-09-10T05:11:56.924Z,101055.50
2023-09-10T05:16:59.545Z,101065.63
2023-09-10T05:22:01.789Z,101067.97
2023-09-10T05:27:05.293Z,101049.72
2023-09-10T05:32:07.201Z,101069.03
2023-09-10T05:37:09.006Z,101045.19
2023-09-10T05:42:12.163Z,101066.63
2023-09-10T05:47:14.067Z,101062.50
2023-09-10T05:52:15.888Z,101061.75
2023-09-10T05:57:19.245Z,101064.34
2023-09-10T06:02:21.627Z,101066.59
2023-09-10T06:07:23.538Z,101070.41
2023-09-10T06:12:26.746Z,101069.84
2023-09-10T06:17:29.288Z,101075.34
2023-09-10T06:22:31.093Z,101078.78
2023-09-10T06:27:34.339Z,101079.56
2023-09-10T06:32:36.381Z,101086.34
2023-09-10T06:37:39.709Z,101049.34
2023-09-10T06:42:44.677Z,101093.38
2023-09-10T06:48:04.872Z,101088.75
2023-09-10T06:53:06.652Z,101046.22
2023-09-10T06:58:09.738Z,101087.47
2023-09-10T07:03:11.668Z,101086.66
2023-09-10T07:08:13.479Z,101084.97
2023-09-10T07:13:16.651Z,101082.44
2023-09-10T07:18:18.265Z,101081.19
2023-09-10T07:23:19.961Z,101080.59
2023-09-10T07:28:23.107Z,101089.03
2023-09-10T07:33:24.727Z,101087.88
2023-09-10T07:38:26.709Z,101102.22
2023-09-10T07:43:29.799Z,101105.00
2023-09-10T07:48:31.418Z,101102.75
2023-09-10T07:53:33.137Z,101103.78
2023-09-10T07:58:36.194Z,101113.25
2023-09-10T08:03:38.349Z,101113.97
2023-09-10T08:08:40.333Z,101106.41
2023-09-10T08:13:43.461Z,101110.16
2023-09-10T08:18:45.174Z,101109.38
2023-09-10T08:23:46.853Z,101090.34
2023-09-10T08:28:49.932Z,101103.47
2023-09-10T08:33:51.588Z,101100.53
2023-09-10T08:38:53.231Z,101095.88
2023-09-10T08:43:58.190Z,101100.56
2023-09-10T08:49:00.931Z,101086.94
2023-09-10T08:54:03.091Z,101094.69
2023-09-10T08:59:07.519Z,101096.50
2023-09-10T09:04:11.367Z,101089.00
2023-09-10T09:09:15.953Z,101102.41
2023-09-10T09:14:19.949Z,101088.78
2023-09-10T09:19:22.596Z,101087.84
2023-09-10T09:24:24.568Z,101088.94
2023-09-10T09:29:28.690Z,101078.13
2023-09-10T09:34:30.888Z,101077.25
2023-09-10T09:39:32.537Z,101077.13
2023-09-10T09:44:35.626Z,101072.72
2023-09-10T09:49:43.540Z,101065.63
2023-09-10T09:54:46.122Z,101062.78
2023-09-10T09:59:50.312Z,101054.28
2023-09-10T10:04:55.188Z,101054.34
2023-09-10T10:09:59.790Z,101040.84
2023-09-10T10:15:03.346Z,101042.16
2023-09-10T10:20:07.390Z,101026.69
2023-09-10T10:25:09.852Z,100985.16
2023-09-10T10:30:14.537Z,101030.78
2023-09-10T10:35:16.945Z,101023.19
2023-09-10T10:40:20.128Z,101006.09
2023-09-10T10:45:26.054Z,100969.81
2023-09-10T10:50:28.945Z,101005.81
2023-09-10T10:55:31.580Z,100980.13
2023-09-10T11:00:34.836Z,100998.31
2023-09-10T11:06:02.524Z,100993.56
2023-09-10T11:11:05.732Z,100975.81
2023-09-10T11:16:18.460Z,100936.41
2023-09-10T11:21:19.996Z,100977.66
2023-09-10T11:26:31.639Z,100979.28
2023-09-10T11:31:39.652Z,100966.66
2023-09-10T11:36:43.426Z,100974.88
2023-09-10T11:41:46.580Z,100980.50
2023-09-10T11:46:50.583Z,100965.84
2023-09-10T11:51:54.537Z,100970.31
2023-09-10T11:56:57.641Z,100972.88
2023-09-10T12:02:01.055Z,100964.09
2023-09-10T12:07:03.604Z,100952.66
2023-09-10T12:12:09.930Z,100958.66
2023-09-10T12:17:13.621Z,100944.50
2023-09-10T12:22:15.416Z,100948.00
2023-09-10T12:27:17.162Z,100950.22
2023-09-10T12:32:21.117Z,100954.84
2023-09-10T12:37:22.755Z,100948.75
2023-09-10T12:42:24.808Z,100945.16
2023-09-10T12:47:27.911Z,100938.34
2023-09-10T12:52:29.632Z,100939.72
2023-09-10T12:57:31.677Z,100931.50
2023-09-10T13:02:36.041Z,100928.06
2023-09-10T13:07:37.852Z,100920.31
2023-09-10T13:12:40.178Z,100916.56
2023-09-10T13:17:43.301Z,100893.03
2023-09-10T13:22:45.291Z,100909.88
2023-09-10T13:27:47.105Z,100906.09
2023-09-10T13:32:50.211Z,100895.84
2023-09-10T13:37:51.946Z,100895.56
2023-09-10T13:42:53.630Z,100898.03
2023-09-10T13:47:56.905Z,100889.47
2023-09-10T13:52:58.653Z,100890.31
2023-09-10T13:58:00.384Z,100882.84
2023-09-10T14:03:04.461Z,100878.13
2023-09-10T14:08:06.801Z,100872.97
2023-09-10T14:13:08.577Z,100881.31
2023-09-10T14:18:11.628Z,100874.41
2023-09-10T14:23:13.371Z,100864.78
2023-09-10T14:28:15.563Z,100861.78
2023-09-10T14:33:18.668Z,100859.38
2023-09-10T14:38:20.360Z,100857.38
2023-09-10T14:43:22.072Z,100858.38
2023-09-10T14:48:25.128Z,100858.78
2023-09-10T14:53:26.866Z,100865.81
2023-09-10T14:58:28.661Z,100838.91
2023-09-10T15:03:31.740Z,100856.03
2023-09-10T15:08:33.968Z,100836.47
2023-09-10T15:13:35.709Z,100861.63
2023-09-10T15:18:38.703Z,100843.97
2023-09-10T15:23:41.766Z,100841.28
2023-09-10T15:28:43.626Z,100830.78
2023-09-10T15:33:46.616Z,100837.66
2023-09-10T15:38:48.318Z,100824.53
2023-09-10T15:43:50.012Z,100829.22
2023-09-10T15:48:53.149Z,100820.88
2023-09-10T15:53:54.804Z,100817.16
2023-09-10T15:58:56.505Z,100776.38
2023-09-10T16:03:59.600Z,100818.22
2023-09-10T16:09:02.229Z,100822.19
2023-09-10T16:14:05.543Z,100815.09
2023-09-10T16:19:08.647Z,100810.34
2023-09-10T16:24:10.333Z,100809.63
2023-09-10T16:29:11.989Z,100817.41
2023-09-10T16:34:15.073Z,100799.59
2023-09-10T16:39:16.696Z,100812.34
2023-09-10T16:44:19.913Z,100814.38
2023-09-10T16:49:23.380Z,100812.88
2023-09-10T16:54:25.042Z,100807.69
2023-09-10T16:59:26.833Z,100810.88
2023-09-10T17:04:29.910Z,100794.06
2023-09-10T17:09:31.975Z,100806.06
2023-09-10T17:14:33.976Z,100798.59
2023-09-10T17:19:37.100Z,100805.13
2023-09-10T17:24:38.821Z,100793.34
2023-09-10T17:29:40.536Z,100800.63
2023-09-10T17:34:43.600Z,100804.63
2023-09-10T17:39:45.255Z,100801.78
2023-09-10T17:44:47.355Z,100798.72
2023-09-10T17:50:03.246Z,100800.19
2023-09-10T17:55:08.164Z,100807.66
2023-09-10T18:00:10.379Z,100804.16
2023-09-10T18:05:13.388Z,100805.91
2023-09-10T18:10:15.474Z,100818.94
2023-09-10T18:15:17.197Z,100821.50
2023-09-10T18:20:20.488Z,100776.72
2023-09-10T18:25:22.222Z,100827.47
2023-09-10T18:30:23.955Z,100828.53
2023-09-10T18:35:27.038Z,100830.06
2023-09-10T18:40:28.721Z,100832.50
2023-09-10T18:45:30.372Z,100832.94
2023-09-10T18:50:33.508Z,100823.09
2023-09-10T18:55:35.290Z,100833.84
2023-09-10T19:00:37.098Z,100835.44
2023-09-10T19:05:43.258Z,100854.50
2023-09-10T19:10:45.435Z,100844.22
2023-09-10T19:15:50.705Z,100836.28
2023-09-10T19:20:54.444Z,100851.97
2023-09-10T19:25:56.114Z,100846.00
2023-09-10T19:30:57.793Z,100842.31
2023-09-10T19:36:04.525Z,100835.50
2023-09-10T19:41:06.156Z,100845.03
2023-09-10T19:46:07.773Z,100850.88
2023-09-10T19:51:10.811Z,100849.88
2023-09-10T19:56:13.058Z,100850.72
2023-09-10T20:01:14.758Z,100848.22
2023-09-10T20:06:17.936Z,100850.28
2023-09-10T20:11:20.146Z,100846.31
2023-09-10T20:16:22.163Z,100847.97
2023-09-10T20:21:25.287Z,100846.31
2023-09-10T20:26:28.781Z,100836.97
2023-09-10T20:31:31.908Z,100842.13
2023-09-10T20:36:34.914Z,100836.91
2023-09-10T20:41:36.725Z,100841.00
2023-09-10T20:46:38.505Z,100844.91
2023-09-10T20:51:41.572Z,100844.03
2023-09-10T20:56:43.270Z,100840.91
2023-09-10T21:01:44.996Z,100841.47
2023-09-10T21:06:48.232Z,100847.41
2023-09-10T21:11:50.368Z,100846.47
2023-09-10T21:16:52.255Z,100844.13
2023-09-10T21:21:55.389Z,100843.44
2023-09-10T21:26:57.036Z,100833.50
2023-09-10T21:31:58.858Z,100843.94
2023-09-10T21:37:02.005Z,100843.66
2023-09-10T21:42:04.160Z,100837.16
2023-09-10T21:47:06.648Z,100842.03
2023-09-10T21:52:09.879Z,100828.94
2023-09-10T21:57:11.581Z,100826.56
2023-09-10T22:02:13.106Z,100833.81
2023-09-10T22:07:16.164Z,100833.50
2023-09-10T22:12:18.044Z,100833.69
2023-09-10T22:17:20.183Z,100828.91
2023-09-10T22:22:23.294Z,100827.16
2023-09-10T22:27:24.982Z,100820.53
2023-09-10T22:32:26.693Z,100821.28
2023-09-10T22:37:29.542Z,100825.56
2023-09-10T22:42:31.212Z,100820.75
2023-09-10T22:47:32.876Z,100812.38
2023-09-10T22:52:35.919Z,100813.50
2023-09-10T22:57:37.591Z,100825.56
2023-09-10T23:02:39.494Z,100818.06
2023-09-10T23:07:42.666Z,100815.69
2023-09-10T23:12:44.740Z,100813.31
2023-09-10T23:17:46.774Z,100811.00
2023-09-10T23:22:57.626Z,100806.56
2023-09-10T23:27:59.240Z,100774.09
2023-09-10T23:33:00.973Z,100796.16
2023-09-10T23:38:04.089Z,100793.09
2023-09-10T23:43:06.045Z,100782.81
2023-09-10T23:48:07.816Z,100775.81
2023-09-10T23:53:10.764Z,100773.53
2023-09-10T23:58:12.409Z,100750.22
